This is the latest recevied weather packets stored in our database for station/object W1ERB-13. If no packets are shown the sender has not sent any weather packets the latest 10 day(s).
| Time | Temp. | Humidity | Pressure | Rain* | Wind** | Luminosity | Snow |
|---|---|---|---|---|---|---|---|
| 1777298454 | 15.56° C | 49% | 1024.2 hPa | 0 mm | - | 712 W/m² | - |
| 1777298150 | 15° C | 52% | 1024.1 hPa | 0 mm | - | 672 W/m² | - |
| 1777297844 | 14.44° C | 55% | 1024.1 hPa | 0 mm | - | 653 W/m² | - |
| 1777297543 | 15° C | 53% | 1024.2 hPa | 0 mm | - | 609 W/m² | - |
| 1777297239 | 15° C | 56% | 1023.8 hPa | 0 mm | - | 565 W/m² | - |
| 1777296937 | 13.33° C | 58% | 1024.1 hPa | 0 mm | - | 619 W/m² | - |
| 1777296633 | 13.89° C | 57% | 1024.3 hPa | 0 mm | - | 627 W/m² | - |
| 1777296303 | 13.33° C | 59% | 1024.2 hPa | 0 mm | - | 611 W/m² | - |
| 1777295999 | 13.33° C | 58% | 1023.8 hPa | 0 mm | - | 575 W/m² | - |
| 1777295696 | 13.33° C | 61% | 1024.1 hPa | 0 mm | - | 561 W/m² | - |
| 1777295394 | 12.78° C | 61% | 1024.1 hPa | 0 mm | - | 536 W/m² | - |
| 1777295091 | 12.22° C | 63% | 1024.1 hPa | 0 mm | - | 494 W/m² | - |
| 1777294788 | 11.67° C | 64% | 1024 hPa | 0 mm | - | 454 W/m² | - |
| 1777294483 | 11.67° C | 65% | 1024.2 hPa | 0 mm | - | 422 W/m² | - |
| 1777294180 | 11.11° C | 67% | 1024.2 hPa | 0 mm | - | 399 W/m² | - |
| 1777293878 | 11.11° C | 66% | 1023.9 hPa | 0 mm | - | 363 W/m² | - |
| 1777293573 | 10.56° C | 68% | 1024 hPa | 0 mm | - | 361 W/m² | - |
| 1777293268 | 10.56° C | 70% | 1024 hPa | 0 mm | - | 347 W/m² | - |
| 1777292968 | 10.56° C | 71% | 1023.9 hPa | 0 mm | - | 334 W/m² | - |
| 1777292663 | 10° C | 73% | 1024.1 hPa | 0 mm | - | 617 W/m² | - |
| 1777292359 | 10° C | 74% | 1024.1 hPa | 0 mm | - | 122 W/m² | - |
| 1777292056 | 9.44° C | 75% | 1024.2 hPa | 0 mm | - | 58 W/m² | - |
| 1777291753 | 9.44° C | 75% | 1024 hPa | 0 mm | - | 106 W/m² | - |
| 1777291449 | 8.89° C | 78% | 1024 hPa | 0 mm | - | 55 W/m² | - |
| 1777291146 | 8.33° C | 79% | 1024.1 hPa | 0 mm | - | 73 W/m² | - |
* Rain latest hour (hover to see other rain measurements)
** Current wind speed in m/s (hover to see current wind gust speed)